createdAt,value
2023-08-07T00:01:44.434Z,87.44
2023-08-07T00:04:14.066Z,87.59
2023-08-07T00:06:43.649Z,87.27
2023-08-07T00:09:13.594Z,87.60
2023-08-07T00:11:45.669Z,87.71
2023-08-07T00:14:15.229Z,88.09
2023-08-07T00:16:48.153Z,87.38
2023-08-07T00:19:17.964Z,87.78
2023-08-07T00:21:47.489Z,87.36
2023-08-07T00:24:17.059Z,87.78
2023-08-07T00:26:46.672Z,87.70
2023-08-07T00:29:16.243Z,88.10
2023-08-07T00:31:48.399Z,88.48
2023-08-07T00:34:17.996Z,88.66
2023-08-07T00:36:47.794Z,89.46
2023-08-07T00:39:17.374Z,90.13
2023-08-07T00:41:47.027Z,90.81
2023-08-07T00:44:16.662Z,91.20
2023-08-07T00:46:49.022Z,90.84
2023-08-07T00:49:19.293Z,91.58
2023-08-07T00:51:49.330Z,92.81
2023-08-07T00:54:21.959Z,92.13
2023-08-07T00:56:51.752Z,92.57
2023-08-07T00:59:22.713Z,92.75
2023-08-07T01:01:55.477Z,91.64
2023-08-07T01:04:24.937Z,92.09
2023-08-07T01:06:54.651Z,92.64
2023-08-07T01:09:24.423Z,92.24
2023-08-07T01:12:00.863Z,93.74
2023-08-07T01:14:37.356Z,94.84
2023-08-07T01:17:13.532Z,94.10
2023-08-07T01:19:44.840Z,94.06
2023-08-07T01:22:19.181Z,93.90
2023-08-07T01:24:49.971Z,91.47
2023-08-07T01:27:32.056Z,92.74
2023-08-07T01:30:13.249Z,93.56
2023-08-07T01:32:51.451Z,92.72
2023-08-07T01:35:26.565Z,92.98
2023-08-07T01:38:00.369Z,93.44
2023-08-07T01:40:31.800Z,92.97
2023-08-07T01:43:02.134Z,92.95
2023-08-07T01:45:32.816Z,92.88
2023-08-07T01:48:03.209Z,93.40
2023-08-07T01:50:33.134Z,93.04
2023-08-07T01:53:05.538Z,93.05
2023-08-07T01:55:35.470Z,92.90
2023-08-07T01:58:05.189Z,93.66
2023-08-07T02:00:35.375Z,93.96
2023-08-07T02:03:05.085Z,93.39
2023-08-07T02:05:34.803Z,94.61
2023-08-07T02:08:07.928Z,93.57
2023-08-07T02:10:37.508Z,93.24
2023-08-07T02:15:59.670Z,92.32
2023-08-07T02:18:29.757Z,92.78
2023-08-07T02:20:59.324Z,92.30
2023-08-07T02:23:31.792Z,93.14
2023-08-07T02:26:01.437Z,93.22
2023-08-07T02:28:31.004Z,91.93
2023-08-07T02:31:00.568Z,92.73
2023-08-07T02:33:31.452Z,92.99
2023-08-07T02:38:46.184Z,92.96
2023-08-07T02:41:15.785Z,92.33
2023-08-07T02:43:45.358Z,93.11
2023-08-07T02:46:14.978Z,92.44
2023-08-07T02:48:44.950Z,91.79
2023-08-07T02:51:14.552Z,92.17
2023-08-07T02:53:46.715Z,92.08
2023-08-07T02:56:16.284Z,92.36
2023-08-07T02:58:45.834Z,92.55
2023-08-07T03:01:15.506Z,93.23
2023-08-07T03:03:45.082Z,93.16
2023-08-07T03:06:14.715Z,93.38
2023-08-07T03:08:46.880Z,92.80
2023-08-07T03:11:16.494Z,92.66
2023-08-07T03:13:46.093Z,93.03
2023-08-07T03:16:15.732Z,93.01
2023-08-07T03:18:45.464Z,91.68
2023-08-07T03:21:15.069Z,91.75
2023-08-07T03:23:47.868Z,92.26
2023-08-07T03:26:19.488Z,92.20
2023-08-07T03:28:52.077Z,91.97
2023-08-07T03:31:21.923Z,92.82
2023-08-07T03:33:51.753Z,91.82
2023-08-07T03:36:22.230Z,91.66
2023-08-07T03:38:54.438Z,93.31
2023-08-07T03:41:24.155Z,93.76
2023-08-07T03:43:53.740Z,92.48
2023-08-07T03:46:23.315Z,92.51
2023-08-07T03:48:54.516Z,92.61
2023-08-07T03:51:30.181Z,93.00
2023-08-07T03:54:04.528Z,93.37
2023-08-07T03:56:37.683Z,93.36
2023-08-07T03:59:08.224Z,91.56
2023-08-07T04:01:38.362Z,92.40
2023-08-07T04:04:08.108Z,92.99
2023-08-07T04:06:37.738Z,93.57
2023-08-07T04:09:11.414Z,93.46
2023-08-07T04:11:41.145Z,94.19
2023-08-07T04:14:10.757Z,93.57
2023-08-07T04:16:41.020Z,92.69
2023-08-07T04:19:10.956Z,93.32
2023-08-07T04:21:40.565Z,92.42
2023-08-07T04:24:14.074Z,92.43
2023-08-07T04:26:43.703Z,92.30
2023-08-07T04:29:13.382Z,93.13
2023-08-07T04:31:42.980Z,92.52
2023-08-07T04:34:13.819Z,92.80
2023-08-07T04:36:43.411Z,92.49
2023-08-07T04:39:15.689Z,92.53
2023-08-07T04:41:45.264Z,92.09
2023-08-07T04:44:14.915Z,92.39
2023-08-07T04:46:45.088Z,92.18
2023-08-07T04:49:14.707Z,91.31
2023-08-07T04:51:44.296Z,92.04
2023-08-07T04:54:16.480Z,92.89
2023-08-07T04:56:46.075Z,92.04
2023-08-07T04:59:15.733Z,92.83
2023-08-07T05:01:45.284Z,91.90
2023-08-07T05:04:14.915Z,91.43
2023-08-07T05:06:44.573Z,91.35
2023-08-07T05:09:16.821Z,91.08
2023-08-07T05:11:46.498Z,90.91
2023-08-07T05:14:16.059Z,91.55
2023-08-07T05:16:45.603Z,91.61
2023-08-07T05:19:15.164Z,91.22
2023-08-07T05:21:44.786Z,91.35
2023-08-07T05:24:16.954Z,91.54
2023-08-07T05:26:46.548Z,91.53
2023-08-07T05:29:16.177Z,91.29
2023-08-07T05:31:45.768Z,91.46
2023-08-07T05:34:15.335Z,90.87
2023-08-07T05:36:44.929Z,90.18
2023-08-07T05:39:17.149Z,90.21
2023-08-07T05:41:47.179Z,90.74
2023-08-07T05:44:16.746Z,90.76
2023-08-07T05:46:46.279Z,90.25
2023-08-07T05:49:15.826Z,89.75
2023-08-07T05:51:45.447Z,89.54
2023-08-07T05:54:17.662Z,89.37
2023-08-07T05:56:47.320Z,90.04
2023-08-07T05:59:17.128Z,88.89
2023-08-07T06:01:47.008Z,89.21
2023-08-07T06:04:16.685Z,88.10
2023-08-07T06:06:47.196Z,87.37
2023-08-07T06:09:19.372Z,88.20
2023-08-07T06:11:48.918Z,87.65
2023-08-07T06:14:18.505Z,87.92
2023-08-07T06:16:48.119Z,88.02
2023-08-07T06:19:30.331Z,87.74
2023-08-07T06:22:02.175Z,87.38
2023-08-07T06:24:34.580Z,87.72
2023-08-07T06:27:06.115Z,87.89
2023-08-07T06:29:35.750Z,87.24
2023-08-07T06:32:05.446Z,86.79
2023-08-07T06:34:35.016Z,87.02
2023-08-07T06:37:04.576Z,86.18
2023-08-07T06:39:36.798Z,87.40
2023-08-07T06:42:07.035Z,86.50
2023-08-07T06:44:38.766Z,86.40
2023-08-07T06:47:10.894Z,87.10
2023-08-07T06:49:40.815Z,86.12
2023-08-07T06:52:10.689Z,86.06
2023-08-07T06:54:42.868Z,85.26
2023-08-07T06:57:12.436Z,86.65
2023-08-07T06:59:42.434Z,86.46
2023-08-07T07:02:12.681Z,85.63
2023-08-07T07:04:42.391Z,85.09
2023-08-07T07:07:11.980Z,85.52
2023-08-07T07:09:44.150Z,85.16
2023-08-07T07:12:13.778Z,84.91
2023-08-07T07:14:43.341Z,85.33
2023-08-07T07:17:12.911Z,84.89
2023-08-07T07:19:42.533Z,85.19
2023-08-07T07:22:12.082Z,84.86
2023-08-07T07:24:44.396Z,84.93
2023-08-07T07:27:13.989Z,85.34
2023-08-07T07:29:43.563Z,85.02
2023-08-07T07:32:13.113Z,84.58
2023-08-07T07:34:42.971Z,84.64
2023-08-07T07:37:12.529Z,84.76
2023-08-07T07:39:44.690Z,85.03
2023-08-07T07:42:17.495Z,83.83
2023-08-07T07:44:47.096Z,84.51
2023-08-07T07:47:16.712Z,84.21
2023-08-07T07:49:48.898Z,84.27
2023-08-07T07:52:18.830Z,83.67
2023-08-07T07:54:50.986Z,83.88
2023-08-07T07:57:21.169Z,83.25
2023-08-07T07:59:50.961Z,83.02
2023-08-07T08:02:20.845Z,82.25
2023-08-07T08:04:50.450Z,83.14
2023-08-07T08:07:20.140Z,82.91
2023-08-07T08:09:53.195Z,81.76
2023-08-07T08:12:22.873Z,82.19
2023-08-07T08:14:56.089Z,81.21
2023-08-07T08:17:27.238Z,80.91
2023-08-07T08:19:56.856Z,80.63
2023-08-07T08:22:26.572Z,80.33
2023-08-07T08:24:58.689Z,79.97
2023-08-07T08:27:29.121Z,80.84
2023-08-07T08:29:58.714Z,80.03
2023-08-07T08:32:28.464Z,81.09
2023-08-07T08:34:58.064Z,80.07
2023-08-07T08:37:27.729Z,79.46
2023-08-07T08:39:59.935Z,79.78
2023-08-07T08:42:30.156Z,79.94
2023-08-07T08:45:00.441Z,80.49
2023-08-07T08:47:33.262Z,80.53
2023-08-07T08:50:09.517Z,80.64
2023-08-07T08:52:40.909Z,79.91
2023-08-07T08:55:13.955Z,79.41
2023-08-07T08:57:44.091Z,78.42
2023-08-07T09:00:19.750Z,77.13
2023-08-07T09:02:50.078Z,79.79
2023-08-07T09:05:21.236Z,82.76
2023-08-07T09:07:51.418Z,83.23
2023-08-07T09:10:23.996Z,82.33
2023-08-07T09:13:07.382Z,82.21
2023-08-07T09:15:37.069Z,83.22
2023-08-07T09:18:11.858Z,85.17
2023-08-07T09:20:42.316Z,86.02
2023-08-07T09:23:11.951Z,87.35
2023-08-07T09:25:44.770Z,85.69
2023-08-07T09:28:14.867Z,86.04
2023-08-07T09:30:46.161Z,83.72
2023-08-07T09:33:15.808Z,86.65
2023-08-07T09:35:45.387Z,85.73
2023-08-07T09:38:15.211Z,86.37
2023-08-07T09:40:47.520Z,87.69
2023-08-07T09:43:25.187Z,86.98
2023-08-07T09:45:54.789Z,86.29
2023-08-07T09:48:29.079Z,84.15
2023-08-07T09:51:02.657Z,83.01
2023-08-07T09:53:33.827Z,84.21
2023-08-07T09:56:06.558Z,83.53
2023-08-07T09:58:36.936Z,83.76
2023-08-07T10:01:10.792Z,81.04
2023-08-07T10:03:40.763Z,82.12
2023-08-07T10:06:11.663Z,79.68
2023-08-07T10:08:43.667Z,82.42
2023-08-07T10:11:18.904Z,83.05
2023-08-07T10:13:49.374Z,82.55
2023-08-07T10:16:19.071Z,83.04
2023-08-07T10:18:48.657Z,83.04
2023-08-07T10:21:18.283Z,83.22
2023-08-07T10:23:48.164Z,81.97
2023-08-07T10:26:20.664Z,78.63
2023-08-07T10:28:52.075Z,79.74
2023-08-07T10:31:22.387Z,78.92
2023-08-07T10:33:52.484Z,78.17
2023-08-07T10:36:22.670Z,79.03
2023-08-07T10:38:54.073Z,77.88
2023-08-07T10:41:26.237Z,76.78
2023-08-07T10:43:57.281Z,75.58
2023-08-07T10:46:28.323Z,75.23
2023-08-07T10:49:01.089Z,76.40
2023-08-07T10:51:33.612Z,74.63
2023-08-07T10:54:05.182Z,73.10
2023-08-07T10:56:38.836Z,73.56
2023-08-07T10:59:12.793Z,72.35
2023-08-07T11:01:46.750Z,72.52
2023-08-07T11:04:18.047Z,70.56
2023-08-07T11:06:51.037Z,70.99
2023-08-07T11:09:20.645Z,70.57
2023-08-07T11:11:52.866Z,69.07
2023-08-07T11:14:23.644Z,67.02
2023-08-07T11:16:53.244Z,67.40
2023-08-07T11:19:23.013Z,67.59
2023-08-07T11:21:52.800Z,66.74
2023-08-07T11:24:22.900Z,67.42
2023-08-07T11:26:57.237Z,63.33
2023-08-07T11:29:27.344Z,63.16
2023-08-07T11:31:57.431Z,63.30
2023-08-07T11:34:27.028Z,61.05
2023-08-07T11:36:59.398Z,64.70
2023-08-07T11:39:29.164Z,65.82
2023-08-07T11:42:01.297Z,64.73
2023-08-07T11:44:37.476Z,66.19
2023-08-07T11:47:07.319Z,63.86
2023-08-07T11:49:37.085Z,62.61
2023-08-07T11:52:07.663Z,62.88
2023-08-07T11:54:37.422Z,61.97
2023-08-07T11:57:19.426Z,61.04
2023-08-07T11:59:54.276Z,60.03
2023-08-07T12:02:28.333Z,59.03
2023-08-07T12:05:01.769Z,57.99
2023-08-07T12:07:33.880Z,58.75
2023-08-07T12:10:07.634Z,60.79
2023-08-07T12:12:40.293Z,58.49
2023-08-07T12:15:11.162Z,59.83
2023-08-07T12:17:40.896Z,61.05
2023-08-07T12:20:11.765Z,59.74
2023-08-07T12:22:41.437Z,60.34
2023-08-07T12:25:11.591Z,60.63
2023-08-07T12:27:43.758Z,60.31
2023-08-07T12:30:14.978Z,60.09
2023-08-07T12:32:44.588Z,60.06
2023-08-07T12:35:15.967Z,60.47
2023-08-07T12:37:45.667Z,61.02
2023-08-07T12:42:55.748Z,61.72
2023-08-07T12:47:57.938Z,62.15
2023-08-07T12:50:27.575Z,58.53
2023-08-07T12:52:57.226Z,58.98
2023-08-07T12:55:27.325Z,57.85
2023-08-07T12:57:59.999Z,58.62
2023-08-07T13:00:32.830Z,59.03
2023-08-07T13:03:05.736Z,59.11
2023-08-07T13:05:37.198Z,56.50
2023-08-07T13:08:08.408Z,56.65
2023-08-07T13:10:40.420Z,56.26
2023-08-07T13:13:12.689Z,54.81
2023-08-07T13:15:42.232Z,54.85
2023-08-07T13:18:12.024Z,55.24
2023-08-07T13:20:41.670Z,58.16
2023-08-07T13:23:11.386Z,54.96
2023-08-07T13:25:41.230Z,56.42
2023-08-07T13:28:13.343Z,56.28
2023-08-07T13:30:43.005Z,56.06
2023-08-07T13:33:12.611Z,55.98
2023-08-07T13:35:42.479Z,55.96
2023-08-07T13:38:14.127Z,56.43
2023-08-07T13:40:45.349Z,55.17
2023-08-07T13:43:17.540Z,54.71
2023-08-07T13:45:47.206Z,54.99
2023-08-07T13:48:17.084Z,56.74
2023-08-07T13:50:46.714Z,55.50
2023-08-07T13:53:16.479Z,57.05
2023-08-07T13:55:47.491Z,57.29
2023-08-07T13:58:19.601Z,57.82
2023-08-07T14:00:49.569Z,57.24
2023-08-07T14:03:19.338Z,58.19
2023-08-07T14:05:49.533Z,56.46
2023-08-07T14:08:19.073Z,57.14
2023-08-07T14:10:48.832Z,56.75
2023-08-07T14:13:21.020Z,57.53
2023-08-07T14:15:50.611Z,55.07
2023-08-07T14:18:20.153Z,56.49
2023-08-07T14:21:01.902Z,53.92
2023-08-07T14:23:34.033Z,57.09
2023-08-07T14:26:05.733Z,55.53
2023-08-07T14:28:37.963Z,54.41
2023-08-07T14:31:10.723Z,52.26
2023-08-07T14:33:41.890Z,52.77
2023-08-07T14:36:11.526Z,53.38
2023-08-07T14:38:41.239Z,52.16
2023-08-07T14:41:10.777Z,54.95
2023-08-07T14:43:42.925Z,50.72
2023-08-07T14:46:12.506Z,53.35
2023-08-07T14:48:42.131Z,54.26
2023-08-07T14:51:11.727Z,52.11
2023-08-07T14:53:41.307Z,52.63
2023-08-07T14:56:10.985Z,52.98
2023-08-07T14:58:43.237Z,53.86
2023-08-07T15:01:12.804Z,54.08
2023-08-07T15:03:42.382Z,54.21
2023-08-07T15:06:12.013Z,53.66
2023-08-07T15:08:41.598Z,53.39
2023-08-07T15:11:11.256Z,53.71
2023-08-07T15:13:43.798Z,53.66
2023-08-07T15:16:13.200Z,53.54
2023-08-07T15:18:43.366Z,55.51
2023-08-07T15:21:13.061Z,54.70
2023-08-07T15:23:42.671Z,53.04
2023-08-07T15:26:12.274Z,53.00
2023-08-07T15:28:44.756Z,55.88
2023-08-07T15:31:14.305Z,54.47
2023-08-07T15:33:48.557Z,55.99
2023-08-07T15:36:18.179Z,55.63
2023-08-07T15:38:47.835Z,55.98
2023-08-07T15:41:17.536Z,55.26
2023-08-07T15:43:50.683Z,57.12
2023-08-07T15:46:20.687Z,57.22
2023-08-07T15:48:50.617Z,55.54
2023-08-07T15:51:21.050Z,56.41
2023-08-07T15:53:50.666Z,57.52
2023-08-07T15:56:20.246Z,58.96
2023-08-07T15:58:52.365Z,58.45
2023-08-07T16:01:22.112Z,59.26
2023-08-07T16:03:51.739Z,59.29
2023-08-07T16:06:22.797Z,60.34
2023-08-07T16:08:52.362Z,60.03
2023-08-07T16:11:21.920Z,59.64
2023-08-07T16:13:54.550Z,59.76
2023-08-07T16:16:24.109Z,57.91
2023-08-07T16:18:53.852Z,57.48
2023-08-07T16:21:23.426Z,57.75
2023-08-07T16:23:53.009Z,58.13
2023-08-07T16:26:22.561Z,57.86
2023-08-07T16:28:54.754Z,58.40
2023-08-07T16:31:24.840Z,59.06
2023-08-07T16:33:54.504Z,58.26
2023-08-07T16:36:24.104Z,58.90
2023-08-07T16:38:55.466Z,58.92
2023-08-07T16:41:26.109Z,58.00
2023-08-07T16:43:58.290Z,59.48
2023-08-07T16:46:28.438Z,58.85
2023-08-07T16:48:59.433Z,60.67
2023-08-07T16:51:29.101Z,60.63
2023-08-07T16:53:58.650Z,60.88
2023-08-07T16:56:28.232Z,61.38
2023-08-07T16:59:00.342Z,63.13
2023-08-07T17:01:29.984Z,64.75
2023-08-07T17:03:59.591Z,67.44
2023-08-07T17:06:29.310Z,69.22
2023-08-07T17:08:58.929Z,72.43
2023-08-07T17:11:29.563Z,74.07
2023-08-07T17:14:01.922Z,76.11
2023-08-07T17:16:31.934Z,77.74
2023-08-07T17:19:01.527Z,80.80
2023-08-07T17:21:31.286Z,78.49
2023-08-07T17:24:00.959Z,79.76
2023-08-07T17:26:31.124Z,78.31
2023-08-07T17:29:03.368Z,79.81
2023-08-07T17:31:33.562Z,81.08
2023-08-07T17:34:04.232Z,80.47
2023-08-07T17:36:33.921Z,80.87
2023-08-07T17:39:03.977Z,80.35
2023-08-07T17:41:33.545Z,79.03
2023-08-07T17:44:05.764Z,80.95
2023-08-07T17:46:35.523Z,77.85
2023-08-07T17:49:05.157Z,78.06
2023-08-07T17:51:34.687Z,77.88
2023-08-07T17:54:04.363Z,78.93
2023-08-07T17:56:34.661Z,78.11
2023-08-07T17:59:07.033Z,78.81
2023-08-07T18:01:36.640Z,76.99
2023-08-07T18:04:06.424Z,77.26
2023-08-07T18:06:36.006Z,77.55
2023-08-07T18:09:05.785Z,77.44
2023-08-07T18:11:35.354Z,76.88
2023-08-07T18:14:07.715Z,77.19
2023-08-07T18:16:37.363Z,76.19
2023-08-07T18:19:06.979Z,76.18
2023-08-07T18:21:36.597Z,75.53
2023-08-07T18:24:06.567Z,74.51
2023-08-07T18:26:36.237Z,75.31
2023-08-07T18:29:08.644Z,74.26
2023-08-07T18:31:38.191Z,74.63
2023-08-07T18:34:16.889Z,74.85
2023-08-07T18:36:47.805Z,74.78
2023-08-07T18:39:19.379Z,74.19
2023-08-07T18:41:49.154Z,74.57
2023-08-07T18:44:21.348Z,74.55
2023-08-07T18:46:51.576Z,75.04
2023-08-07T18:49:22.110Z,73.41
2023-08-07T18:51:51.743Z,74.75
2023-08-07T18:54:21.318Z,74.25
2023-08-07T18:56:51.352Z,74.68
2023-08-07T18:59:23.603Z,74.29
2023-08-07T19:01:53.251Z,73.30
2023-08-07T19:04:23.421Z,73.99
2023-08-07T19:06:53.058Z,73.95
2023-08-07T19:09:23.172Z,73.10
2023-08-07T19:11:52.772Z,73.79
2023-08-07T19:14:24.973Z,72.97
2023-08-07T19:16:55.221Z,73.13
2023-08-07T19:19:24.871Z,73.10
2023-08-07T19:21:54.482Z,73.45
2023-08-07T19:24:24.094Z,73.03
2023-08-07T19:26:53.748Z,73.76
2023-08-07T19:29:33.545Z,73.41
2023-08-07T19:32:03.125Z,72.45
2023-08-07T19:34:33.720Z,72.69
2023-08-07T19:37:04.067Z,72.40
2023-08-07T19:39:33.652Z,72.28
2023-08-07T19:42:03.220Z,72.57
2023-08-07T19:44:36.745Z,72.17
2023-08-07T19:47:06.969Z,72.14
2023-08-07T19:49:36.541Z,70.83
2023-08-07T19:52:06.716Z,70.87
2023-08-07T19:54:36.497Z,70.75
2023-08-07T19:57:09.009Z,70.10
2023-08-07T19:59:41.300Z,70.90
2023-08-07T20:02:10.935Z,68.09
2023-08-07T20:04:40.502Z,69.10
2023-08-07T20:07:10.797Z,68.82
2023-08-07T20:09:40.508Z,68.38
2023-08-07T20:12:11.659Z,68.73
2023-08-07T20:14:44.001Z,68.02
2023-08-07T20:17:13.666Z,68.94
2023-08-07T20:19:43.290Z,68.68
2023-08-07T20:22:12.919Z,68.66
2023-08-07T20:24:42.517Z,68.03
2023-08-07T20:27:12.089Z,67.95
2023-08-07T20:29:44.265Z,68.32
2023-08-07T20:32:13.848Z,67.95
2023-08-07T20:34:44.989Z,67.99
2023-08-07T20:37:14.523Z,68.63
2023-08-07T20:39:44.071Z,69.11
2023-08-07T20:42:13.727Z,68.22
2023-08-07T20:44:45.990Z,68.93
2023-08-07T20:47:15.612Z,69.44
2023-08-07T20:49:45.273Z,68.31
2023-08-07T20:52:14.929Z,68.02
2023-08-07T20:54:44.479Z,68.34
2023-08-07T20:57:14.079Z,67.42
2023-08-07T20:59:46.288Z,67.75
2023-08-07T21:02:15.908Z,67.53
2023-08-07T21:04:45.572Z,67.05
2023-08-07T21:07:15.131Z,66.77
2023-08-07T21:09:44.728Z,67.38
2023-08-07T21:12:14.297Z,68.03
2023-08-07T21:14:46.659Z,67.13
2023-08-07T21:17:16.581Z,66.85
2023-08-07T21:19:46.169Z,67.95
2023-08-07T21:24:51.286Z,67.62
2023-08-07T21:27:21.921Z,67.63
2023-08-07T21:29:54.101Z,68.71
2023-08-07T21:32:23.707Z,68.59
2023-08-07T21:34:53.310Z,68.72
2023-08-07T21:37:22.936Z,68.96
2023-08-07T21:39:52.510Z,68.62
2023-08-07T21:42:23.789Z,68.80
2023-08-07T21:44:56.995Z,68.81
2023-08-07T21:47:26.930Z,69.29
2023-08-07T21:49:56.642Z,67.99
2023-08-07T21:52:26.244Z,68.74
2023-08-07T21:54:55.854Z,68.06
2023-08-07T21:57:25.433Z,69.12
2023-08-07T21:59:57.633Z,69.58
2023-08-07T22:02:27.742Z,68.25
2023-08-07T22:04:57.486Z,68.49
2023-08-07T22:07:27.176Z,68.79
2023-08-07T22:09:56.805Z,68.86
2023-08-07T22:12:26.961Z,68.84
2023-08-07T22:14:59.829Z,69.37
2023-08-07T22:17:29.547Z,68.99
2023-08-07T22:20:04.765Z,68.66
2023-08-07T22:22:36.171Z,68.83
2023-08-07T22:25:07.298Z,68.79
2023-08-07T22:27:37.027Z,68.91
2023-08-07T22:30:10.846Z,68.92
2023-08-07T22:32:40.504Z,68.92
2023-08-07T22:35:11.384Z,69.57
2023-08-07T22:37:41.036Z,69.51
2023-08-07T22:40:12.303Z,68.66
2023-08-07T22:42:41.893Z,68.97
2023-08-07T22:45:14.404Z,69.01
2023-08-07T22:47:44.065Z,68.96
2023-08-07T22:50:13.879Z,68.58
2023-08-07T22:52:43.646Z,69.29
2023-08-07T22:55:13.367Z,68.77
2023-08-07T22:57:42.972Z,68.68
2023-08-07T23:00:16.031Z,68.50
2023-08-07T23:02:45.674Z,69.17
2023-08-07T23:05:17.108Z,69.20
2023-08-07T23:07:47.819Z,69.17
2023-08-07T23:10:17.443Z,69.00
2023-08-07T23:12:47.383Z,68.94
2023-08-07T23:15:19.550Z,69.58
2023-08-07T23:17:49.186Z,69.42
2023-08-07T23:20:19.026Z,69.32
2023-08-07T23:22:48.600Z,69.28
2023-08-07T23:25:19.482Z,69.68
2023-08-07T23:27:49.174Z,69.97
2023-08-07T23:30:21.834Z,70.02
2023-08-07T23:32:51.281Z,70.12
2023-08-07T23:35:21.083Z,70.21
2023-08-07T23:37:50.629Z,69.63
2023-08-07T23:40:20.347Z,69.96
2023-08-07T23:42:49.890Z,70.76
2023-08-07T23:45:22.057Z,70.55
2023-08-07T23:47:51.637Z,70.55
2023-08-07T23:50:21.386Z,70.87
2023-08-07T23:52:50.958Z,71.01
2023-08-07T23:55:20.493Z,71.33
2023-08-07T23:57:50.063Z,71.26
